sensor_id;sensor_type;location;lat;lon;timestamp;P1;durP1;ratioP1;P2;durP2;ratioP2
4226;SDS011;2127;51.046;7.080;2023-05-16T00:01:09;1.23;;;1.17;;
4226;SDS011;2127;51.046;7.080;2023-05-16T00:03:36;5.80;;;0.87;;
4226;SDS011;2127;51.046;7.080;2023-05-16T00:06:03;1.40;;;1.23;;
4226;SDS011;2127;51.046;7.080;2023-05-16T00:08:29;1.23;;;1.23;;
4226;SDS011;2127;51.046;7.080;2023-05-16T00:10:56;4.03;;;1.43;;
4226;SDS011;2127;51.046;7.080;2023-05-16T00:13:22;1.17;;;1.10;;
4226;SDS011;2127;51.046;7.080;2023-05-16T00:15:50;1.50;;;1.27;;
4226;SDS011;2127;51.046;7.080;2023-05-16T00:18:18;2.90;;;1.43;;
4226;SDS011;2127;51.046;7.080;2023-05-16T00:20:46;2.30;;;2.20;;
4226;SDS011;2127;51.046;7.080;2023-05-16T00:23:12;4.90;;;1.60;;
4226;SDS011;2127;51.046;7.080;2023-05-16T00:25:39;20.27;;;1.53;;
4226;SDS011;2127;51.046;7.080;2023-05-16T00:28:05;21.43;;;1.93;;
4226;SDS011;2127;51.046;7.080;2023-05-16T00:30:32;1.20;;;1.20;;
4226;SDS011;2127;51.046;7.080;2023-05-16T00:32:58;2.40;;;2.20;;
4226;SDS011;2127;51.046;7.080;2023-05-16T00:35:26;1.77;;;1.67;;
4226;SDS011;2127;51.046;7.080;2023-05-16T00:37:52;2.70;;;1.77;;
4226;SDS011;2127;51.046;7.080;2023-05-16T00:40:18;1.70;;;1.70;;
4226;SDS011;2127;51.046;7.080;2023-05-16T00:42:45;1.67;;;1.57;;
4226;SDS011;2127;51.046;7.080;2023-05-16T00:45:11;2.67;;;2.47;;
4226;SDS011;2127;51.046;7.080;2023-05-16T00:47:38;2.40;;;1.60;;
4226;SDS011;2127;51.046;7.080;2023-05-16T00:50:04;3.93;;;2.30;;
4226;SDS011;2127;51.046;7.080;2023-05-16T00:52:32;1.43;;;1.37;;
4226;SDS011;2127;51.046;7.080;2023-05-16T00:55:00;1.60;;;1.50;;
4226;SDS011;2127;51.046;7.080;2023-05-16T00:57:26;1.23;;;1.17;;
4226;SDS011;2127;51.046;7.080;2023-05-16T00:59:53;1.07;;;1.07;;
4226;SDS011;2127;51.046;7.080;2023-05-16T01:02:19;1.90;;;1.37;;
4226;SDS011;2127;51.046;7.080;2023-05-16T01:04:45;1.40;;;1.30;;
4226;SDS011;2127;51.046;7.080;2023-05-16T01:07:13;1.37;;;1.27;;
4226;SDS011;2127;51.046;7.080;2023-05-16T01:09:41;1.50;;;1.40;;
4226;SDS011;2127;51.046;7.080;2023-05-16T01:12:08;1.63;;;1.23;;
4226;SDS011;2127;51.046;7.080;2023-05-16T01:14:37;1.23;;;1.07;;
4226;SDS011;2127;51.046;7.080;2023-05-16T01:17:09;1.63;;;1.40;;
4226;SDS011;2127;51.046;7.080;2023-05-16T01:19:46;1.00;;;1.00;;
4226;SDS011;2127;51.046;7.080;2023-05-16T01:22:15;1.03;;;1.03;;
4226;SDS011;2127;51.046;7.080;2023-05-16T01:24:47;0.83;;;0.83;;
4226;SDS011;2127;51.046;7.080;2023-05-16T01:27:21;1.10;;;1.10;;
4226;SDS011;2127;51.046;7.080;2023-05-16T01:29:48;1.50;;;1.40;;
4226;SDS011;2127;51.046;7.080;2023-05-16T01:32:20;1.33;;;1.23;;
4226;SDS011;2127;51.046;7.080;2023-05-16T01:34:47;0.70;;;0.70;;
4226;SDS011;2127;51.046;7.080;2023-05-16T01:37:15;1.53;;;1.43;;
4226;SDS011;2127;51.046;7.080;2023-05-16T01:39:43;1.63;;;1.03;;
4226;SDS011;2127;51.046;7.080;2023-05-16T01:42:11;1.60;;;1.50;;
4226;SDS011;2127;51.046;7.080;2023-05-16T01:44:42;1.10;;;1.10;;
4226;SDS011;2127;51.046;7.080;2023-05-16T01:47:10;2.07;;;1.63;;
4226;SDS011;2127;51.046;7.080;2023-05-16T01:49:38;1.50;;;1.40;;
4226;SDS011;2127;51.046;7.080;2023-05-16T01:52:07;2.40;;;1.43;;
4226;SDS011;2127;51.046;7.080;2023-05-16T01:54:35;1.23;;;1.13;;
4226;SDS011;2127;51.046;7.080;2023-05-16T01:57:03;1.70;;;1.27;;
4226;SDS011;2127;51.046;7.080;2023-05-16T01:59:30;8.33;;;2.43;;
4226;SDS011;2127;51.046;7.080;2023-05-16T02:01:58;1.43;;;1.20;;
4226;SDS011;2127;51.046;7.080;2023-05-16T02:04:24;1.83;;;1.13;;
4226;SDS011;2127;51.046;7.080;2023-05-16T02:06:51;1.43;;;1.40;;
4226;SDS011;2127;51.046;7.080;2023-05-16T02:09:17;1.20;;;1.20;;
4226;SDS011;2127;51.046;7.080;2023-05-16T02:11:43;0.73;;;0.73;;
4226;SDS011;2127;51.046;7.080;2023-05-16T02:14:10;4.27;;;1.60;;
4226;SDS011;2127;51.046;7.080;2023-05-16T02:16:38;1.40;;;1.40;;
4226;SDS011;2127;51.046;7.080;2023-05-16T02:19:05;2.10;;;0.80;;
4226;SDS011;2127;51.046;7.080;2023-05-16T02:21:32;1.10;;;1.10;;
4226;SDS011;2127;51.046;7.080;2023-05-16T02:23:58;1.53;;;1.43;;
4226;SDS011;2127;51.046;7.080;2023-05-16T02:26:24;0.80;;;0.80;;
4226;SDS011;2127;51.046;7.080;2023-05-16T02:28:51;0.80;;;0.80;;
4226;SDS011;2127;51.046;7.080;2023-05-16T02:31:24;1.00;;;1.00;;
4226;SDS011;2127;51.046;7.080;2023-05-16T02:33:51;1.40;;;0.83;;
4226;SDS011;2127;51.046;7.080;2023-05-16T02:36:18;1.20;;;1.10;;
4226;SDS011;2127;51.046;7.080;2023-05-16T02:38:45;1.20;;;1.20;;
4226;SDS011;2127;51.046;7.080;2023-05-16T02:41:11;2.13;;;1.57;;
4226;SDS011;2127;51.046;7.080;2023-05-16T02:43:37;1.63;;;1.53;;
4226;SDS011;2127;51.046;7.080;2023-05-16T02:46:04;2.37;;;2.20;;
4226;SDS011;2127;51.046;7.080;2023-05-16T02:48:30;3.33;;;1.70;;
4226;SDS011;2127;51.046;7.080;2023-05-16T02:50:57;1.30;;;1.30;;
4226;SDS011;2127;51.046;7.080;2023-05-16T02:53:24;1.77;;;1.67;;
4226;SDS011;2127;51.046;7.080;2023-05-16T02:55:51;1.43;;;1.43;;
4226;SDS011;2127;51.046;7.080;2023-05-16T02:58:17;3.53;;;1.90;;
4226;SDS011;2127;51.046;7.080;2023-05-16T03:00:43;2.83;;;1.93;;
4226;SDS011;2127;51.046;7.080;2023-05-16T03:03:10;4.50;;;2.77;;
4226;SDS011;2127;51.046;7.080;2023-05-16T03:05:36;2.43;;;1.10;;
4226;SDS011;2127;51.046;7.080;2023-05-16T03:08:02;3.37;;;1.97;;
4226;SDS011;2127;51.046;7.080;2023-05-16T03:10:30;5.03;;;2.50;;
4226;SDS011;2127;51.046;7.080;2023-05-16T03:12:56;3.67;;;1.77;;
4226;SDS011;2127;51.046;7.080;2023-05-16T03:15:22;2.13;;;2.03;;
4226;SDS011;2127;51.046;7.080;2023-05-16T03:17:49;6.17;;;2.23;;
4226;SDS011;2127;51.046;7.080;2023-05-16T03:20:15;3.63;;;2.13;;
4226;SDS011;2127;51.046;7.080;2023-05-16T03:22:42;4.20;;;1.63;;
4226;SDS011;2127;51.046;7.080;2023-05-16T03:25:09;6.03;;;3.20;;
4226;SDS011;2127;51.046;7.080;2023-05-16T03:27:36;1.40;;;1.30;;
4226;SDS011;2127;51.046;7.080;2023-05-16T03:30:03;2.83;;;2.73;;
4226;SDS011;2127;51.046;7.080;2023-05-16T03:32:30;2.53;;;2.33;;
4226;SDS011;2127;51.046;7.080;2023-05-16T03:34:56;2.77;;;2.53;;
4226;SDS011;2127;51.046;7.080;2023-05-16T03:37:22;5.43;;;1.27;;
4226;SDS011;2127;51.046;7.080;2023-05-16T03:39:49;3.07;;;1.70;;
4226;SDS011;2127;51.046;7.080;2023-05-16T03:42:15;7.87;;;1.80;;
4226;SDS011;2127;51.046;7.080;2023-05-16T03:44:43;8.97;;;2.00;;
4226;SDS011;2127;51.046;7.080;2023-05-16T03:47:10;6.43;;;1.70;;
4226;SDS011;2127;51.046;7.080;2023-05-16T03:49:36;8.30;;;1.93;;
4226;SDS011;2127;51.046;7.080;2023-05-16T03:52:02;6.70;;;1.90;;
4226;SDS011;2127;51.046;7.080;2023-05-16T03:54:29;1.67;;;1.57;;
4226;SDS011;2127;51.046;7.080;2023-05-16T03:56:55;5.70;;;1.63;;
4226;SDS011;2127;51.046;7.080;2023-05-16T03:59:21;1.90;;;1.40;;
4226;SDS011;2127;51.046;7.080;2023-05-16T04:01:49;10.73;;;2.50;;
4226;SDS011;2127;51.046;7.080;2023-05-16T04:04:15;4.87;;;1.63;;
4226;SDS011;2127;51.046;7.080;2023-05-16T04:06:42;1.47;;;1.47;;
4226;SDS011;2127;51.046;7.080;2023-05-16T04:09:08;12.63;;;2.77;;
4226;SDS011;2127;51.046;7.080;2023-05-16T04:11:34;2.00;;;1.80;;
4226;SDS011;2127;51.046;7.080;2023-05-16T04:14:02;3.67;;;1.60;;
4226;SDS011;2127;51.046;7.080;2023-05-16T04:16:29;4.73;;;1.70;;
4226;SDS011;2127;51.046;7.080;2023-05-16T04:18:56;4.00;;;1.80;;
4226;SDS011;2127;51.046;7.080;2023-05-16T04:21:23;10.03;;;2.30;;
4226;SDS011;2127;51.046;7.080;2023-05-16T04:23:49;7.60;;;2.03;;
4226;SDS011;2127;51.046;7.080;2023-05-16T04:26:15;4.73;;;2.00;;
4226;SDS011;2127;51.046;7.080;2023-05-16T04:28:42;9.40;;;2.20;;
4226;SDS011;2127;51.046;7.080;2023-05-16T04:31:08;21.07;;;1.97;;
4226;SDS011;2127;51.046;7.080;2023-05-16T04:33:35;11.50;;;1.57;;
4226;SDS011;2127;51.046;7.080;2023-05-16T04:36:03;12.20;;;4.67;;
4226;SDS011;2127;51.046;7.080;2023-05-16T04:38:29;9.23;;;2.50;;
4226;SDS011;2127;51.046;7.080;2023-05-16T04:40:56;2.93;;;0.97;;
4226;SDS011;2127;51.046;7.080;2023-05-16T04:43:23;6.70;;;1.60;;
4226;SDS011;2127;51.046;7.080;2023-05-16T04:45:49;1.70;;;1.40;;
4226;SDS011;2127;51.046;7.080;2023-05-16T04:48:17;6.00;;;1.30;;
4226;SDS011;2127;51.046;7.080;2023-05-16T04:50:44;6.60;;;2.00;;
4226;SDS011;2127;51.046;7.080;2023-05-16T04:53:11;12.93;;;1.67;;
4226;SDS011;2127;51.046;7.080;2023-05-16T04:55:39;10.47;;;2.50;;
4226;SDS011;2127;51.046;7.080;2023-05-16T04:58:05;9.17;;;1.30;;
4226;SDS011;2127;51.046;7.080;2023-05-16T05:00:32;1.90;;;1.43;;
4226;SDS011;2127;51.046;7.080;2023-05-16T05:02:58;11.93;;;2.60;;
4226;SDS011;2127;51.046;7.080;2023-05-16T05:05:25;2.83;;;1.50;;
4226;SDS011;2127;51.046;7.080;2023-05-16T05:07:51;18.37;;;1.60;;
4226;SDS011;2127;51.046;7.080;2023-05-16T05:10:19;11.37;;;2.40;;
4226;SDS011;2127;51.046;7.080;2023-05-16T05:12:45;1.53;;;1.43;;
4226;SDS011;2127;51.046;7.080;2023-05-16T05:15:12;3.20;;;1.20;;
4226;SDS011;2127;51.046;7.080;2023-05-16T05:17:38;5.67;;;1.90;;
4226;SDS011;2127;51.046;7.080;2023-05-16T05:20:05;1.67;;;1.57;;
4226;SDS011;2127;51.046;7.080;2023-05-16T05:22:32;5.60;;;1.67;;
4226;SDS011;2127;51.046;7.080;2023-05-16T05:24:59;8.47;;;1.73;;
4226;SDS011;2127;51.046;7.080;2023-05-16T05:27:27;2.70;;;1.57;;
4226;SDS011;2127;51.046;7.080;2023-05-16T05:29:53;2.67;;;2.47;;
4226;SDS011;2127;51.046;7.080;2023-05-16T05:32:20;3.53;;;3.10;;
4226;SDS011;2127;51.046;7.080;2023-05-16T05:34:46;4.40;;;3.00;;
4226;SDS011;2127;51.046;7.080;2023-05-16T05:37:12;1.97;;;1.43;;
4226;SDS011;2127;51.046;7.080;2023-05-16T05:39:39;3.07;;;2.53;;
4226;SDS011;2127;51.046;7.080;2023-05-16T05:42:05;14.47;;;2.10;;
4226;SDS011;2127;51.046;7.080;2023-05-16T05:44:33;2.63;;;2.40;;
4226;SDS011;2127;51.046;7.080;2023-05-16T05:46:59;6.83;;;2.03;;
4226;SDS011;2127;51.046;7.080;2023-05-16T05:49:25;6.07;;;2.97;;
4226;SDS011;2127;51.046;7.080;2023-05-16T05:51:52;2.80;;;2.60;;
4226;SDS011;2127;51.046;7.080;2023-05-16T05:54:18;17.33;;;2.10;;
4226;SDS011;2127;51.046;7.080;2023-05-16T05:56:45;4.23;;;2.03;;
4226;SDS011;2127;51.046;7.080;2023-05-16T05:59:11;6.93;;;2.07;;
4226;SDS011;2127;51.046;7.080;2023-05-16T06:01:39;8.53;;;1.70;;
4226;SDS011;2127;51.046;7.080;2023-05-16T06:04:06;1.80;;;1.70;;
4226;SDS011;2127;51.046;7.080;2023-05-16T06:06:32;2.43;;;1.70;;
4226;SDS011;2127;51.046;7.080;2023-05-16T06:08:58;6.43;;;0.90;;
4226;SDS011;2127;51.046;7.080;2023-05-16T06:11:25;2.47;;;1.40;;
4226;SDS011;2127;51.046;7.080;2023-05-16T06:13:51;2.33;;;2.20;;
4226;SDS011;2127;51.046;7.080;2023-05-16T06:16:17;3.50;;;2.20;;
4226;SDS011;2127;51.046;7.080;2023-05-16T06:18:45;4.67;;;1.43;;
4226;SDS011;2127;51.046;7.080;2023-05-16T06:21:12;8.33;;;2.07;;
4226;SDS011;2127;51.046;7.080;2023-05-16T06:23:39;2.13;;;1.80;;
4226;SDS011;2127;51.046;7.080;2023-05-16T06:26:05;16.20;;;2.50;;
4226;SDS011;2127;51.046;7.080;2023-05-16T06:28:31;7.37;;;2.53;;
4226;SDS011;2127;51.046;7.080;2023-05-16T06:30:58;0.90;;;0.90;;
4226;SDS011;2127;51.046;7.080;2023-05-16T06:33:25;11.70;;;1.50;;
4226;SDS011;2127;51.046;7.080;2023-05-16T06:35:52;20.57;;;1.60;;
4226;SDS011;2127;51.046;7.080;2023-05-16T06:38:19;6.13;;;2.00;;
4226;SDS011;2127;51.046;7.080;2023-05-16T06:40:45;3.30;;;0.90;;
4226;SDS011;2127;51.046;7.080;2023-05-16T06:43:11;2.90;;;0.97;;
4226;SDS011;2127;51.046;7.080;2023-05-16T06:45:37;15.07;;;1.37;;
4226;SDS011;2127;51.046;7.080;2023-05-16T06:48:05;9.67;;;1.13;;
4226;SDS011;2127;51.046;7.080;2023-05-16T06:50:32;1.10;;;1.10;;
4226;SDS011;2127;51.046;7.080;2023-05-16T06:53:00;1.67;;;1.57;;
4226;SDS011;2127;51.046;7.080;2023-05-16T06:55:28;6.40;;;1.13;;
4226;SDS011;2127;51.046;7.080;2023-05-16T06:57:55;1.10;;;0.93;;
4226;SDS011;2127;51.046;7.080;2023-05-16T07:00:21;19.83;;;1.47;;
4226;SDS011;2127;51.046;7.080;2023-05-16T07:02:47;1.23;;;1.23;;
4226;SDS011;2127;51.046;7.080;2023-05-16T07:05:14;4.00;;;1.33;;
4226;SDS011;2127;51.046;7.080;2023-05-16T07:07:41;2.20;;;1.00;;
4226;SDS011;2127;51.046;7.080;2023-05-16T07:10:09;5.57;;;0.90;;
4226;SDS011;2127;51.046;7.080;2023-05-16T07:12:35;8.73;;;1.30;;
4226;SDS011;2127;51.046;7.080;2023-05-16T07:15:02;4.63;;;0.80;;
4226;SDS011;2127;51.046;7.080;2023-05-16T07:17:29;16.73;;;1.47;;
4226;SDS011;2127;51.046;7.080;2023-05-16T07:19:55;0.90;;;0.90;;
4226;SDS011;2127;51.046;7.080;2023-05-16T07:22:21;0.50;;;0.50;;
4226;SDS011;2127;51.046;7.080;2023-05-16T07:24:48;1.10;;;1.00;;
4226;SDS011;2127;51.046;7.080;2023-05-16T07:27:16;0.93;;;0.90;;
4226;SDS011;2127;51.046;7.080;2023-05-16T07:29:42;0.70;;;0.70;;
4226;SDS011;2127;51.046;7.080;2023-05-16T07:32:08;1.40;;;1.03;;
4226;SDS011;2127;51.046;7.080;2023-05-16T07:34:34;1.57;;;1.50;;
4226;SDS011;2127;51.046;7.080;2023-05-16T07:37:01;3.80;;;0.90;;
4226;SDS011;2127;51.046;7.080;2023-05-16T07:39:27;0.80;;;0.80;;
4226;SDS011;2127;51.046;7.080;2023-05-16T07:41:53;2.93;;;0.80;;
4226;SDS011;2127;51.046;7.080;2023-05-16T07:44:22;5.23;;;1.20;;
4226;SDS011;2127;51.046;7.080;2023-05-16T07:46:48;0.90;;;0.90;;
4226;SDS011;2127;51.046;7.080;2023-05-16T07:49:14;1.37;;;0.97;;
4226;SDS011;2127;51.046;7.080;2023-05-16T07:51:41;2.83;;;0.80;;
4226;SDS011;2127;51.046;7.080;2023-05-16T07:54:07;1.63;;;0.70;;
4226;SDS011;2127;51.046;7.080;2023-05-16T07:56:33;0.80;;;0.80;;
4226;SDS011;2127;51.046;7.080;2023-05-16T07:58:59;4.30;;;1.20;;
4226;SDS011;2127;51.046;7.080;2023-05-16T08:01:27;3.13;;;0.70;;
4226;SDS011;2127;51.046;7.080;2023-05-16T08:03:53;8.23;;;1.03;;
4226;SDS011;2127;51.046;7.080;2023-05-16T08:06:20;0.90;;;0.83;;
4226;SDS011;2127;51.046;7.080;2023-05-16T08:08:46;0.50;;;0.50;;
4226;SDS011;2127;51.046;7.080;2023-05-16T08:11:12;2.93;;;1.30;;
4226;SDS011;2127;51.046;7.080;2023-05-16T08:13:38;1.37;;;1.20;;
4226;SDS011;2127;51.046;7.080;2023-05-16T08:16:05;0.80;;;0.50;;
4226;SDS011;2127;51.046;7.080;2023-05-16T08:18:32;0.83;;;0.63;;
4226;SDS011;2127;51.046;7.080;2023-05-16T08:20:59;5.70;;;0.90;;
4226;SDS011;2127;51.046;7.080;2023-05-16T08:23:25;2.40;;;0.50;;
4226;SDS011;2127;51.046;7.080;2023-05-16T08:25:51;0.73;;;0.73;;
4226;SDS011;2127;51.046;7.080;2023-05-16T08:28:18;3.43;;;0.40;;
4226;SDS011;2127;51.046;7.080;2023-05-16T08:30:45;5.40;;;0.90;;
4226;SDS011;2127;51.046;7.080;2023-05-16T08:33:11;1.00;;;0.50;;
4226;SDS011;2127;51.046;7.080;2023-05-16T08:35:42;1.37;;;0.73;;
4226;SDS011;2127;51.046;7.080;2023-05-16T08:38:08;0.87;;;0.40;;
4226;SDS011;2127;51.046;7.080;2023-05-16T08:40:35;12.83;;;0.67;;
4226;SDS011;2127;51.046;7.080;2023-05-16T08:43:01;16.90;;;0.87;;
4226;SDS011;2127;51.046;7.080;2023-05-16T08:45:27;1.80;;;0.80;;
4226;SDS011;2127;51.046;7.080;2023-05-16T08:47:54;5.47;;;0.67;;
4226;SDS011;2127;51.046;7.080;2023-05-16T08:50:21;3.60;;;0.87;;
4226;SDS011;2127;51.046;7.080;2023-05-16T08:52:49;3.30;;;0.53;;
4226;SDS011;2127;51.046;7.080;2023-05-16T08:55:16;6.80;;;0.50;;
4226;SDS011;2127;51.046;7.080;2023-05-16T08:57:44;3.50;;;1.00;;
4226;SDS011;2127;51.046;7.080;2023-05-16T09:00:10;3.60;;;0.97;;
4226;SDS011;2127;51.046;7.080;2023-05-16T09:02:37;1.30;;;0.40;;
4226;SDS011;2127;51.046;7.080;2023-05-16T09:05:04;0.50;;;0.50;;
4226;SDS011;2127;51.046;7.080;2023-05-16T09:07:31;0.80;;;0.50;;
4226;SDS011;2127;51.046;7.080;2023-05-16T09:09:59;1.27;;;0.73;;
4226;SDS011;2127;51.046;7.080;2023-05-16T09:12:25;0.67;;;0.50;;
4226;SDS011;2127;51.046;7.080;2023-05-16T09:14:52;0.40;;;0.40;;
4226;SDS011;2127;51.046;7.080;2023-05-16T09:17:18;1.17;;;0.40;;
4226;SDS011;2127;51.046;7.080;2023-05-16T09:19:45;1.30;;;0.50;;
4226;SDS011;2127;51.046;7.080;2023-05-16T09:22:12;2.70;;;0.80;;
4226;SDS011;2127;51.046;7.080;2023-05-16T09:24:39;0.63;;;0.63;;
4226;SDS011;2127;51.046;7.080;2023-05-16T09:27:10;1.63;;;0.60;;
4226;SDS011;2127;51.046;7.080;2023-05-16T09:29:38;0.40;;;0.40;;
4226;SDS011;2127;51.046;7.080;2023-05-16T09:32:09;6.50;;;0.60;;
4226;SDS011;2127;51.046;7.080;2023-05-16T09:34:36;0.50;;;0.37;;
4226;SDS011;2127;51.046;7.080;2023-05-16T09:37:03;0.40;;;0.40;;
4226;SDS011;2127;51.046;7.080;2023-05-16T09:39:29;0.47;;;0.47;;
4226;SDS011;2127;51.046;7.080;2023-05-16T09:41:57;6.63;;;1.03;;
4226;SDS011;2127;51.046;7.080;2023-05-16T09:44:24;4.23;;;0.50;;
4226;SDS011;2127;51.046;7.080;2023-05-16T09:46:52;4.23;;;0.53;;
4226;SDS011;2127;51.046;7.080;2023-05-16T09:49:18;0.50;;;0.50;;
4226;SDS011;2127;51.046;7.080;2023-05-16T09:51:45;0.40;;;0.40;;
4226;SDS011;2127;51.046;7.080;2023-05-16T09:54:11;0.50;;;0.50;;
4226;SDS011;2127;51.046;7.080;2023-05-16T09:56:46;2.97;;;1.23;;
4226;SDS011;2127;51.046;7.080;2023-05-16T09:59:13;0.30;;;0.30;;
4226;SDS011;2127;51.046;7.080;2023-05-16T10:01:41;3.43;;;0.70;;
4226;SDS011;2127;51.046;7.080;2023-05-16T10:04:07;0.93;;;0.30;;
4226;SDS011;2127;51.046;7.080;2023-05-16T10:06:38;1.00;;;0.70;;
4226;SDS011;2127;51.046;7.080;2023-05-16T10:09:05;1.07;;;0.60;;
4226;SDS011;2127;51.046;7.080;2023-05-16T10:11:32;1.47;;;0.60;;
4226;SDS011;2127;51.046;7.080;2023-05-16T10:13:58;0.80;;;0.80;;
4226;SDS011;2127;51.046;7.080;2023-05-16T10:16:24;0.30;;;0.30;;
4226;SDS011;2127;51.046;7.080;2023-05-16T10:18:52;0.30;;;0.30;;
4226;SDS011;2127;51.046;7.080;2023-05-16T10:21:20;0.30;;;0.30;;
4226;SDS011;2127;51.046;7.080;2023-05-16T10:23:47;1.07;;;0.50;;
4226;SDS011;2127;51.046;7.080;2023-05-16T10:26:15;6.70;;;0.70;;
4226;SDS011;2127;51.046;7.080;2023-05-16T10:28:42;5.97;;;0.70;;
4226;SDS011;2127;51.046;7.080;2023-05-16T10:31:09;0.60;;;0.50;;
4226;SDS011;2127;51.046;7.080;2023-05-16T10:33:36;4.90;;;1.07;;
4226;SDS011;2127;51.046;7.080;2023-05-16T10:36:04;2.50;;;0.50;;
4226;SDS011;2127;51.046;7.080;2023-05-16T10:38:31;2.50;;;0.93;;
4226;SDS011;2127;51.046;7.080;2023-05-16T10:40:58;0.97;;;0.50;;
4226;SDS011;2127;51.046;7.080;2023-05-16T10:43:25;0.40;;;0.40;;
4226;SDS011;2127;51.046;7.080;2023-05-16T10:45:55;1.47;;;0.50;;
4226;SDS011;2127;51.046;7.080;2023-05-16T10:48:27;0.53;;;0.40;;
4226;SDS011;2127;51.046;7.080;2023-05-16T10:50:53;0.60;;;0.60;;
4226;SDS011;2127;51.046;7.080;2023-05-16T10:53:21;0.40;;;0.40;;
4226;SDS011;2127;51.046;7.080;2023-05-16T10:55:49;1.10;;;0.60;;
4226;SDS011;2127;51.046;7.080;2023-05-16T10:58:22;2.40;;;0.40;;
4226;SDS011;2127;51.046;7.080;2023-05-16T11:00:49;0.60;;;0.50;;
4226;SDS011;2127;51.046;7.080;2023-05-16T11:03:20;1.97;;;1.07;;
4226;SDS011;2127;51.046;7.080;2023-05-16T11:05:49;0.80;;;0.60;;
4226;SDS011;2127;51.046;7.080;2023-05-16T11:08:16;0.50;;;0.50;;
4226;SDS011;2127;51.046;7.080;2023-05-16T11:10:44;4.83;;;0.73;;
4226;SDS011;2127;51.046;7.080;2023-05-16T11:13:10;1.97;;;0.73;;
4226;SDS011;2127;51.046;7.080;2023-05-16T11:15:36;5.30;;;0.57;;
4226;SDS011;2127;51.046;7.080;2023-05-16T11:18:04;0.50;;;0.50;;
4226;SDS011;2127;51.046;7.080;2023-05-16T11:20:31;0.67;;;0.67;;
4226;SDS011;2127;51.046;7.080;2023-05-16T11:23:17;1.40;;;0.70;;
4226;SDS011;2127;51.046;7.080;2023-05-16T11:25:45;0.50;;;0.50;;
4226;SDS011;2127;51.046;7.080;2023-05-16T11:28:13;0.40;;;0.40;;
4226;SDS011;2127;51.046;7.080;2023-05-16T11:30:41;0.93;;;0.50;;
4226;SDS011;2127;51.046;7.080;2023-05-16T11:33:08;0.60;;;0.60;;
4226;SDS011;2127;51.046;7.080;2023-05-16T11:35:34;0.47;;;0.47;;
4226;SDS011;2127;51.046;7.080;2023-05-16T11:38:01;12.17;;;0.80;;
4226;SDS011;2127;51.046;7.080;2023-05-16T11:40:27;0.50;;;0.40;;
4226;SDS011;2127;51.046;7.080;2023-05-16T11:42:58;0.40;;;0.40;;
4226;SDS011;2127;51.046;7.080;2023-05-16T11:45:24;0.80;;;0.63;;
4226;SDS011;2127;51.046;7.080;2023-05-16T11:47:51;0.60;;;0.40;;
4226;SDS011;2127;51.046;7.080;2023-05-16T11:50:18;8.90;;;0.40;;
4226;SDS011;2127;51.046;7.080;2023-05-16T11:52:45;1.57;;;1.47;;
4226;SDS011;2127;51.046;7.080;2023-05-16T11:55:12;4.90;;;0.37;;
4226;SDS011;2127;51.046;7.080;2023-05-16T11:57:39;1.87;;;0.77;;
4226;SDS011;2127;51.046;7.080;2023-05-16T12:00:10;0.50;;;0.50;;
4226;SDS011;2127;51.046;7.080;2023-05-16T12:02:39;0.77;;;0.70;;
4226;SDS011;2127;51.046;7.080;2023-05-16T12:05:06;0.70;;;0.57;;
4226;SDS011;2127;51.046;7.080;2023-05-16T12:07:33;0.90;;;0.60;;
4226;SDS011;2127;51.046;7.080;2023-05-16T12:10:03;1.43;;;0.50;;
4226;SDS011;2127;51.046;7.080;2023-05-16T12:12:29;1.47;;;0.67;;
4226;SDS011;2127;51.046;7.080;2023-05-16T12:14:56;6.33;;;1.10;;
4226;SDS011;2127;51.046;7.080;2023-05-16T12:17:24;0.77;;;0.70;;
4226;SDS011;2127;51.046;7.080;2023-05-16T12:19:50;1.73;;;0.60;;
4226;SDS011;2127;51.046;7.080;2023-05-16T12:22:17;1.20;;;0.90;;
4226;SDS011;2127;51.046;7.080;2023-05-16T12:24:44;2.93;;;0.50;;
4226;SDS011;2127;51.046;7.080;2023-05-16T12:27:11;0.73;;;0.60;;
4226;SDS011;2127;51.046;7.080;2023-05-16T12:29:37;0.70;;;0.70;;
4226;SDS011;2127;51.046;7.080;2023-05-16T12:32:04;1.07;;;0.50;;
4226;SDS011;2127;51.046;7.080;2023-05-16T12:34:34;0.40;;;0.40;;
4226;SDS011;2127;51.046;7.080;2023-05-16T12:37:00;0.93;;;0.70;;
4226;SDS011;2127;51.046;7.080;2023-05-16T12:39:26;0.53;;;0.53;;
4226;SDS011;2127;51.046;7.080;2023-05-16T12:42:03;2.13;;;0.77;;
4226;SDS011;2127;51.046;7.080;2023-05-16T12:44:30;3.03;;;0.70;;
4226;SDS011;2127;51.046;7.080;2023-05-16T12:46:56;0.80;;;0.80;;
4226;SDS011;2127;51.046;7.080;2023-05-16T12:49:23;0.80;;;0.70;;
4226;SDS011;2127;51.046;7.080;2023-05-16T12:51:51;0.97;;;0.40;;
4226;SDS011;2127;51.046;7.080;2023-05-16T12:54:17;0.30;;;0.30;;
4226;SDS011;2127;51.046;7.080;2023-05-16T12:56:44;0.37;;;0.37;;
4226;SDS011;2127;51.046;7.080;2023-05-16T12:59:10;6.23;;;0.37;;
4226;SDS011;2127;51.046;7.080;2023-05-16T13:01:37;1.03;;;0.60;;
4226;SDS011;2127;51.046;7.080;2023-05-16T13:04:04;0.40;;;0.40;;
4226;SDS011;2127;51.046;7.080;2023-05-16T13:06:30;0.40;;;0.40;;
4226;SDS011;2127;51.046;7.080;2023-05-16T13:08:58;1.03;;;0.63;;
4226;SDS011;2127;51.046;7.080;2023-05-16T13:11:26;0.50;;;0.50;;
4226;SDS011;2127;51.046;7.080;2023-05-16T13:13:53;0.43;;;0.43;;
4226;SDS011;2127;51.046;7.080;2023-05-16T13:16:19;0.40;;;0.40;;
4226;SDS011;2127;51.046;7.080;2023-05-16T13:18:45;0.50;;;0.50;;
4226;SDS011;2127;51.046;7.080;2023-05-16T13:21:12;0.60;;;0.53;;
4226;SDS011;2127;51.046;7.080;2023-05-16T13:23:38;0.40;;;0.40;;
4226;SDS011;2127;51.046;7.080;2023-05-16T13:26:06;1.17;;;0.40;;
4226;SDS011;2127;51.046;7.080;2023-05-16T13:28:32;1.70;;;0.60;;
4226;SDS011;2127;51.046;7.080;2023-05-16T13:30:58;0.50;;;0.40;;
4226;SDS011;2127;51.046;7.080;2023-05-16T13:33:25;2.40;;;0.40;;
4226;SDS011;2127;51.046;7.080;2023-05-16T13:35:51;0.40;;;0.40;;
4226;SDS011;2127;51.046;7.080;2023-05-16T13:38:19;0.40;;;0.30;;
4226;SDS011;2127;51.046;7.080;2023-05-16T13:40:45;0.40;;;0.30;;
4226;SDS011;2127;51.046;7.080;2023-05-16T13:43:13;0.60;;;0.60;;
4226;SDS011;2127;51.046;7.080;2023-05-16T13:45:39;1.10;;;0.60;;
4226;SDS011;2127;51.046;7.080;2023-05-16T13:48:06;0.60;;;0.43;;
4226;SDS011;2127;51.046;7.080;2023-05-16T13:50:32;3.80;;;0.50;;
4226;SDS011;2127;51.046;7.080;2023-05-16T13:52:58;0.60;;;0.37;;
4226;SDS011;2127;51.046;7.080;2023-05-16T13:55:24;0.50;;;0.50;;
4226;SDS011;2127;51.046;7.080;2023-05-16T13:57:51;0.50;;;0.40;;
4226;SDS011;2127;51.046;7.080;2023-05-16T14:00:18;11.10;;;1.07;;
4226;SDS011;2127;51.046;7.080;2023-05-16T14:02:45;0.40;;;0.30;;
4226;SDS011;2127;51.046;7.080;2023-05-16T14:05:11;0.30;;;0.30;;
4226;SDS011;2127;51.046;7.080;2023-05-16T14:07:37;0.40;;;0.30;;
4226;SDS011;2127;51.046;7.080;2023-05-16T14:10:04;1.90;;;0.60;;
4226;SDS011;2127;51.046;7.080;2023-05-16T14:12:31;0.67;;;0.47;;
4226;SDS011;2127;51.046;7.080;2023-05-16T14:14:57;0.53;;;0.50;;
4226;SDS011;2127;51.046;7.080;2023-05-16T14:17:25;1.00;;;0.50;;
4226;SDS011;2127;51.046;7.080;2023-05-16T14:19:51;1.40;;;0.40;;
4226;SDS011;2127;51.046;7.080;2023-05-16T14:22:18;0.40;;;0.37;;
4226;SDS011;2127;51.046;7.080;2023-05-16T14:24:44;13.13;;;0.60;;
4226;SDS011;2127;51.046;7.080;2023-05-16T14:27:11;0.40;;;0.40;;
4226;SDS011;2127;51.046;7.080;2023-05-16T14:29:39;7.23;;;0.80;;
4226;SDS011;2127;51.046;7.080;2023-05-16T14:32:05;0.50;;;0.47;;
4226;SDS011;2127;51.046;7.080;2023-05-16T14:34:33;3.17;;;0.60;;
4226;SDS011;2127;51.046;7.080;2023-05-16T14:37:00;0.40;;;0.30;;
4226;SDS011;2127;51.046;7.080;2023-05-16T14:39:26;2.53;;;0.40;;
4226;SDS011;2127;51.046;7.080;2023-05-16T14:41:52;2.07;;;0.33;;
4226;SDS011;2127;51.046;7.080;2023-05-16T14:44:18;0.47;;;0.47;;
4226;SDS011;2127;51.046;7.080;2023-05-16T14:46:45;0.90;;;0.43;;
4226;SDS011;2127;51.046;7.080;2023-05-16T14:49:12;0.50;;;0.47;;
4226;SDS011;2127;51.046;7.080;2023-05-16T14:51:39;0.40;;;0.40;;
4226;SDS011;2127;51.046;7.080;2023-05-16T14:54:08;0.50;;;0.40;;
4226;SDS011;2127;51.046;7.080;2023-05-16T14:56:35;1.80;;;0.43;;
4226;SDS011;2127;51.046;7.080;2023-05-16T14:59:01;2.77;;;0.50;;
4226;SDS011;2127;51.046;7.080;2023-05-16T15:01:27;0.47;;;0.40;;
4226;SDS011;2127;51.046;7.080;2023-05-16T15:03:53;3.10;;;0.53;;
4226;SDS011;2127;51.046;7.080;2023-05-16T15:06:20;6.70;;;0.40;;
4226;SDS011;2127;51.046;7.080;2023-05-16T15:08:47;0.40;;;0.40;;
4226;SDS011;2127;51.046;7.080;2023-05-16T15:11:14;0.53;;;0.47;;
4226;SDS011;2127;51.046;7.080;2023-05-16T15:13:40;0.47;;;0.47;;